Time;durP1;ratioP1;P1;durP2;ratioP2;P2;SDS_P1;SDS_P2;PMS_P1;PMS_P2;Temp;Humidity;BMP_temperature;BMP_pressure;BME280_temperature;BME280_humidity;BME280_pressure;Samples;Min_cycle;Max_cycle;Signal;HPM_P1;HPM_P2
2021/03/18 00:01:08;;;;;;;4.60;3.10;;;;;;;3.59;100.00;98816.72;5020790;28;20223;-70
2021/03/18 00:03:37;;;;;;;4.07;2.60;;;;;;;3.57;100.00;98816.03;5013060;28;20227;-70
2021/03/18 00:06:04;;;;;;;9.23;3.27;;;;;;;3.42;100.00;98819.19;5012489;28;20221;-70
2021/03/18 00:08:31;;;;;;;4.60;2.77;;;;;;;3.44;100.00;98814.59;5013244;28;20214;-70
2021/03/18 00:10:59;;;;;;;4.80;2.80;;;;;;;3.43;100.00;98813.78;5012729;28;20229;-69
2021/03/18 00:13:29;;;;;;;6.67;3.10;;;;;;;3.51;100.00;98810.47;5012987;28;20206;-69
2021/03/18 00:15:56;;;;;;;5.93;2.93;;;;;;;3.65;100.00;98818.81;5010564;28;20241;-69
2021/03/18 00:18:29;;;;;;;5.00;3.17;;;;;;;3.61;100.00;98816.59;5011101;28;20207;-70
2021/03/18 00:20:56;;;;;;;5.67;2.47;;;;;;;3.57;100.00;98810.75;5015918;28;20231;-69
2021/03/18 00:23:23;;;;;;;4.37;2.80;;;;;;;3.58;100.00;98811.56;5016647;28;20298;-69
2021/03/18 00:25:50;;;;;;;5.97;3.03;;;;;;;3.58;100.00;98822.97;5014150;28;20198;-69
2021/03/18 00:28:16;;;;;;;6.67;3.27;;;;;;;3.63;100.00;98814.63;5025359;28;20215;-69
2021/03/18 00:30:43;;;;;;;7.67;3.23;;;;;;;3.68;100.00;98812.41;5022452;28;20246;-69
2021/03/18 00:33:10;;;;;;;6.33;2.90;;;;;;;3.62;100.00;98805.06;5016406;28;20622;-69
2021/03/18 00:35:38;;;;;;;10.87;3.43;;;;;;;3.55;100.00;98807.41;5016653;28;20232;-69
2021/03/18 00:38:05;;;;;;;5.80;3.00;;;;;;;3.62;100.00;98811.19;5011875;28;20226;-69
2021/03/18 00:40:35;;;;;;;6.40;3.00;;;;;;;3.57;100.00;98805.47;5014349;28;20227;-69
2021/03/18 00:43:05;;;;;;;4.67;2.93;;;;;;;3.56;100.00;98810.88;5013340;28;20569;-70
2021/03/18 00:45:33;;;;;;;5.83;2.70;;;;;;;3.44;100.00;98802.25;5015877;28;20213;-69
2021/03/18 00:48:01;;;;;;;4.00;2.57;;;;;;;3.43;100.00;98795.31;5012807;28;20213;-69
2021/03/18 00:50:31;;;;;;;5.33;2.77;;;;;;;3.52;100.00;98796.28;5013041;28;20250;-69
2021/03/18 00:52:59;;;;;;;3.33;2.53;;;;;;;3.46;100.00;98786.28;5012772;28;20578;-69
2021/03/18 00:55:27;;;;;;;4.27;2.37;;;;;;;3.62;100.00;98784.78;5014575;28;20674;-70
2021/03/18 00:57:54;;;;;;;5.67;2.27;;;;;;;3.78;100.00;98779.78;5019787;28;20203;-69
2021/03/18 01:00:29;;;;;;;5.67;2.13;;;;;;;3.65;100.00;98778.41;5008489;28;20284;-69
2021/03/18 01:02:56;;;;;;;3.77;2.47;;;;;;;3.57;100.00;98787.00;5016496;28;20550;-69
2021/03/18 01:05:28;;;;;;;5.73;2.33;;;;;;;3.60;100.00;98778.78;5013050;28;20202;-69
2021/03/18 01:07:55;;;;;;;2.20;2.00;;;;;;;3.70;100.00;98784.91;5012459;28;20206;-69
2021/03/18 01:10:25;;;;;;;5.00;2.23;;;;;;;3.34;100.00;98788.22;5010045;28;20230;-69
2021/03/18 01:12:52;;;;;;;3.53;2.20;;;;;;;3.46;100.00;98787.13;5009703;28;20212;-69
2021/03/18 01:15:19;;;;;;;6.20;2.23;;;;;;;3.79;100.00;98783.22;5007639;28;20230;-69
2021/03/18 01:17:46;;;;;;;5.53;2.90;;;;;;;3.77;100.00;98787.81;5011414;28;20587;-70
2021/03/18 01:20:15;;;;;;;5.17;2.37;;;;;;;3.71;100.00;98783.94;5004311;28;20235;-70
2021/03/18 01:22:42;;;;;;;3.23;2.03;;;;;;;3.58;100.00;98788.66;5013750;28;20199;-70
2021/03/18 01:25:09;;;;;;;6.80;2.47;;;;;;;3.85;100.00;98780.88;5011667;28;20233;-69
2021/03/18 01:27:37;;;;;;;5.43;2.33;;;;;;;3.51;100.00;98784.88;5008204;28;20220;-69
2021/03/18 01:30:08;;;;;;;7.90;2.70;;;;;;;3.75;100.00;98782.69;5013242;28;20714;-70
2021/03/18 01:32:35;;;;;;;5.47;2.80;;;;;;;3.75;100.00;98781.84;5012518;28;20215;-70
2021/03/18 01:35:01;;;;;;;3.87;2.30;;;;;;;3.64;100.00;98776.69;5018496;28;20202;-69
2021/03/18 01:37:28;;;;;;;4.33;2.07;;;;;;;3.46;100.00;98781.84;5013786;28;20276;-69
2021/03/18 01:39:56;;;;;;;5.83;2.03;;;;;;;3.59;100.00;98774.50;5014595;28;20199;-69
2021/03/18 01:42:23;;;;;;;3.47;2.00;;;;;;;3.49;100.00;98783.38;5004567;28;20218;-69
2021/03/18 01:44:51;;;;;;;4.30;2.37;;;;;;;3.61;100.00;98779.63;5011535;28;20726;-69
2021/03/18 01:47:18;;;;;;;4.20;2.70;;;;;;;3.46;100.00;98783.66;5013095;28;20214;-70
2021/03/18 01:49:44;;;;;;;6.30;2.70;;;;;;;3.56;100.00;98777.41;5009329;28;20206;-69
2021/03/18 01:52:11;;;;;;;4.40;2.50;;;;;;;3.72;100.00;98775.03;5007908;28;20206;-69
2021/03/18 01:54:38;;;;;;;5.63;2.63;;;;;;;3.73;100.00;98770.59;5013095;28;20198;-69
2021/03/18 01:57:06;;;;;;;5.97;2.53;;;;;;;3.79;100.00;98775.31;5007732;28;20621;-69
2021/03/18 01:59:33;;;;;;;3.53;2.07;;;;;;;3.74;100.00;98770.47;5012999;28;20250;-69
2021/03/18 02:02:00;;;;;;;3.40;2.30;;;;;;;3.85;100.00;98766.81;5003541;28;20227;-69
2021/03/18 02:04:27;;;;;;;4.50;2.47;;;;;;;3.71;100.00;98770.72;5016717;28;20241;-69
2021/03/18 02:06:54;;;;;;;5.07;2.00;;;;;;;3.72;100.00;98766.28;5013539;28;20199;-70
2021/03/18 02:09:21;;;;;;;4.43;2.43;;;;;;;3.72;100.00;98763.66;5012996;28;20203;-70
2021/03/18 02:11:48;;;;;;;5.20;2.47;;;;;;;3.63;100.00;98772.41;5009895;28;20226;-69
2021/03/18 02:14:15;;;;;;;6.00;2.50;;;;;;;3.67;100.00;98771.97;5011747;28;20207;-69
2021/03/18 02:16:43;;;;;;;3.63;1.90;;;;;;;3.85;100.00;98765.03;5011231;28;20310;-69
2021/03/18 02:19:22;;;;;;;6.50;2.00;;;;;;;3.86;100.00;98763.25;5012019;28;20210;-69
2021/03/18 02:22:22;;;;;;;5.83;2.20;;;;;;;3.84;100.00;98768.66;5010408;28;20227;-69
2021/03/18 02:24:57;;;;;;;5.00;2.63;;;;;;;3.80;100.00;98766.41;5013267;28;20214;-69
2021/03/18 02:27:54;;;;;;;4.07;2.03;;;;;;;3.75;100.00;98766.84;5011508;28;20199;-69
2021/03/18 02:30:52;;;;;;;4.73;2.17;;;;;;;3.79;100.00;98768.25;5010454;28;20238;-69
2021/03/18 02:34:00;;;;;;;5.10;2.63;;;;;;;3.69;100.00;98777.97;5010519;28;20671;-69
2021/03/18 02:36:40;;;;;;;8.40;2.20;;;;;;;3.72;100.00;98775.03;5015808;28;20749;-69
2021/03/18 02:39:10;;;;;;;4.40;2.40;;;;;;;3.52;100.00;98783.94;5014619;28;20261;-69
2021/03/18 02:41:40;;;;;;;2.80;2.30;;;;;;;3.80;100.00;98775.19;5011913;28;20229;-69
2021/03/18 02:44:11;;;;;;;5.20;2.20;;;;;;;3.53;100.00;98779.47;5009930;28;20218;-69
2021/03/18 02:46:41;;;;;;;4.83;2.17;;;;;;;3.68;100.00;98781.59;5011850;28;20286;-69
2021/03/18 02:49:09;;;;;;;8.63;2.27;;;;;;;3.73;100.00;98778.50;5008427;28;20214;-69
2021/03/18 02:51:38;;;;;;;6.87;2.00;;;;;;;3.75;100.00;98777.41;5011080;28;20227;-69
2021/03/18 02:54:07;;;;;;;5.03;2.63;;;;;;;3.66;100.00;98786.16;5002626;28;20204;-69
2021/03/18 02:56:35;;;;;;;2.83;1.90;;;;;;;3.68;100.00;98800.06;4999955;28;20241;-69
2021/03/18 02:59:03;;;;;;;3.03;2.07;;;;;;;3.76;100.00;98786.16;5005608;28;20220;-69
2021/03/18 03:01:31;;;;;;;4.20;1.83;;;;;;;3.76;100.00;98786.16;5010073;28;20384;-69
2021/03/18 03:03:58;;;;;;;3.20;1.80;;;;;;;3.78;100.00;98787.69;5011781;28;20211;-69
2021/03/18 03:06:26;;;;;;;3.93;2.00;;;;;;;3.93;100.00;98788.09;5017832;28;20689;-69
2021/03/18 03:08:54;;;;;;;4.33;2.30;;;;;;;4.06;100.00;98797.38;5011661;28;20204;-69
2021/03/18 03:11:22;;;;;;;6.10;2.80;;;;;;;4.02;100.00;98785.44;5016121;28;20238;-69
2021/03/18 03:13:49;;;;;;;4.07;2.17;;;;;;;3.63;100.00;98789.09;5016348;28;20208;-69
2021/03/18 03:16:19;;;;;;;4.63;2.10;;;;;;;3.88;100.00;98792.97;5011642;28;20234;-69
2021/03/18 03:18:46;;;;;;;3.70;2.43;;;;;;;3.81;100.00;98790.03;5017142;28;20582;-70
2021/03/18 03:21:15;;;;;;;3.07;1.93;;;;;;;3.44;100.00;98789.06;5017390;28;20239;-70
2021/03/18 03:23:43;;;;;;;2.67;1.87;;;;;;;3.90;100.00;98793.63;5026163;28;20214;-70
2021/03/18 03:26:10;;;;;;;3.13;2.17;;;;;;;4.02;100.00;98805.75;5021180;28;20203;-69
2021/03/18 03:28:38;;;;;;;3.33;1.83;;;;;;;4.06;100.00;98794.75;5021650;28;20229;-70
2021/03/18 03:31:05;;;;;;;6.17;2.13;;;;;;;4.17;100.00;98786.66;5015377;28;20708;-69
2021/03/18 03:33:32;;;;;;;3.67;2.37;;;;;;;3.74;100.00;98793.38;5015524;28;20217;-70
2021/03/18 03:35:59;;;;;;;3.33;2.20;;;;;;;3.76;100.00;98791.44;5008904;28;20703;-70
2021/03/18 03:38:26;;;;;;;3.70;2.40;;;;;;;3.59;100.00;98792.13;5014083;28;20199;-70
2021/03/18 03:40:53;;;;;;;4.30;2.10;;;;;;;3.65;100.00;98797.69;5002815;28;20227;-70
2021/03/18 03:43:21;;;;;;;3.27;2.13;;;;;;;3.72;100.00;98796.16;5017538;28;20207;-69
2021/03/18 03:45:49;;;;;;;3.70;2.17;;;;;;;3.61;100.00;98796.28;5014516;28;20206;-69
2021/03/18 03:48:16;;;;;;;2.83;2.00;;;;;;;3.81;100.00;98800.59;5011939;28;20202;-69
2021/03/18 03:50:43;;;;;;;4.40;2.07;;;;;;;3.70;100.00;98795.47;5025199;28;20333;-69
2021/03/18 03:53:16;;;;;;;2.93;2.00;;;;;;;3.82;100.00;98794.34;5020981;28;20558;-69
2021/03/18 03:55:56;;;;;;;6.30;2.13;;;;;;;3.99;100.00;98792.81;5014750;28;20222;-69
2021/03/18 03:58:39;;;;;;;7.53;1.87;;;;;;;3.65;100.00;98799.50;5007577;28;20289;-69
2021/03/18 04:01:10;;;;;;;5.03;2.00;;;;;;;3.83;100.00;98796.03;5010647;28;20230;-69
2021/03/18 04:03:37;;;;;;;3.50;2.03;;;;;;;3.84;100.00;98796.84;5013741;28;20203;-70
2021/03/18 04:06:05;;;;;;;5.20;1.83;;;;;;;3.73;100.00;98794.34;5005223;28;20228;-70
2021/03/18 04:08:33;;;;;;;5.10;2.87;;;;;;;3.92;100.00;98800.44;5010392;28;20205;-69
2021/03/18 04:11:01;;;;;;;2.90;1.77;;;;;;;3.93;100.00;98803.94;5007620;28;20868;-69
2021/03/18 04:13:30;;;;;;;4.80;2.40;;;;;;;3.98;100.00;98802.56;5014536;28;20264;-69
2021/03/18 04:15:59;;;;;;;3.17;1.97;;;;;;;3.91;100.00;98808.53;5010206;28;20326;-69
2021/03/18 04:18:30;;;;;;;4.27;2.07;;;;;;;3.96;100.00;98798.38;5012162;28;20209;-69
2021/03/18 04:20:58;;;;;;;4.10;2.13;;;;;;;4.03;100.00;98795.03;5015249;28;20329;-69
2021/03/18 04:23:27;;;;;;;3.73;1.87;;;;;;;3.91;100.00;98793.50;5017791;28;20611;-69
2021/03/18 04:25:56;;;;;;;3.83;1.90;;;;;;;3.94;100.00;98792.38;5010813;28;20206;-69
2021/03/18 04:28:23;;;;;;;4.83;1.83;;;;;;;4.01;100.00;98793.50;5015977;28;20198;-71
2021/03/18 04:30:50;;;;;;;3.53;1.63;;;;;;;3.94;100.00;98787.94;5010552;28;20224;-70
2021/03/18 04:33:18;;;;;;;4.90;1.90;;;;;;;3.85;100.00;98790.59;5019225;28;20202;-70
2021/03/18 04:35:45;;;;;;;5.30;1.90;;;;;;;3.88;100.00;98791.16;5007883;28;20234;-70
2021/03/18 04:38:12;;;;;;;4.27;1.80;;;;;;;3.84;100.00;98800.34;5013093;28;20207;-70
2021/03/18 04:40:39;;;;;;;5.00;1.90;;;;;;;3.74;100.00;98793.38;5011580;28;20227;-70
2021/03/18 04:43:06;;;;;;;4.13;2.00;;;;;;;3.74;100.00;98793.38;5018139;28;20746;-69
2021/03/18 04:45:33;;;;;;;8.83;2.20;;;;;;;3.93;100.00;98799.50;5021452;28;20542;-69
2021/03/18 04:48:01;;;;;;;5.63;2.73;;;;;;;3.91;100.00;98800.59;5016572;28;20203;-69
2021/03/18 04:50:29;;;;;;;4.90;1.93;;;;;;;3.87;100.00;98799.22;5011178;28;20231;-69
2021/03/18 04:52:56;;;;;;;3.93;2.00;;;;;;;3.78;100.00;98798.25;5013074;28;20209;-69
2021/03/18 04:55:23;;;;;;;5.30;2.37;;;;;;;3.82;100.00;98793.53;5004000;28;20203;-69
2021/03/18 04:57:58;;;;;;;4.97;2.40;;;;;;;3.90;100.00;98799.75;5006446;28;20211;-69
2021/03/18 05:00:26;;;;;;;6.40;2.60;;;;;;;3.90;100.00;98791.84;5013154;28;20223;-69
2021/03/18 05:02:53;;;;;;;5.00;1.93;;;;;;;3.79;100.00;98785.88;5013432;28;20575;-69
2021/03/18 05:05:22;;;;;;;7.03;2.57;;;;;;;3.87;100.00;98780.75;5019402;28;20214;-70
2021/03/18 05:07:51;;;;;;;3.70;1.90;;;;;;;3.88;100.00;98777.97;5009296;28;20582;-69
2021/03/18 05:10:20;;;;;;;7.70;2.10;;;;;;;3.96;100.00;98783.34;5005767;28;20636;-70
2021/03/18 05:12:47;;;;;;;3.63;2.13;;;;;;;3.88;100.00;98783.25;5009326;28;20670;-69
2021/03/18 05:15:15;;;;;;;5.70;2.30;;;;;;;3.85;100.00;98782.66;5011176;28;20736;-70
2021/03/18 05:17:43;;;;;;;4.40;2.23;;;;;;;3.78;100.00;98787.69;5011925;28;20227;-70
2021/03/18 05:20:12;;;;;;;4.53;2.27;;;;;;;3.79;100.00;98783.22;5013428;28;20235;-70
2021/03/18 05:22:39;;;;;;;7.60;1.92;;;;;;;3.75;100.00;98782.69;5017827;28;20492;-69
2021/03/18 05:25:10;;;;;;;5.90;2.37;;;;;;;3.65;100.00;98788.94;5011926;28;20202;-69
2021/03/18 05:27:39;;;;;;;4.40;2.40;;;;;;;3.78;100.00;98792.13;5019528;28;20203;-69
2021/03/18 05:30:07;;;;;;;4.57;2.30;;;;;;;3.72;100.00;98788.22;5018715;28;20745;-70
2021/03/18 05:32:35;;;;;;;4.33;1.90;;;;;;;3.87;100.00;98788.66;5012788;28;21604;-69
2021/03/18 05:35:02;;;;;;;2.90;1.90;;;;;;;3.65;100.00;98786.31;5012029;28;20254;-69
2021/03/18 05:37:29;;;;;;;4.33;1.93;;;;;;;3.66;100.00;98794.06;5012184;28;20237;-68
2021/03/18 05:39:55;;;;;;;7.23;2.33;;;;;;;3.71;100.00;98791.84;5022687;28;20210;-68
2021/03/18 05:42:23;;;;;;;6.50;2.93;;;;;;;3.72;100.00;98790.88;5014209;28;20676;-69
2021/03/18 05:44:50;;;;;;;7.43;2.63;;;;;;;3.62;100.00;98797.97;5002157;28;20199;-70
2021/03/18 05:47:17;;;;;;;5.03;2.57;;;;;;;3.75;100.00;98785.31;5002463;28;20203;-69
2021/03/18 05:49:45;;;;;;;4.37;2.13;;;;;;;3.70;100.00;98794.63;5010370;28;20218;-69
2021/03/18 05:52:12;;;;;;;3.70;2.47;;;;;;;3.79;100.00;98789.34;5008227;28;20221;-69
2021/03/18 05:54:42;;;;;;;7.03;2.53;;;;;;;3.60;100.00;98794.63;5008163;28;20199;-69
2021/03/18 05:57:11;;;;;;;7.27;2.77;;;;;;;3.75;100.00;98797.69;5006945;28;20234;-69
2021/03/18 05:59:38;;;;;;;4.27;2.40;;;;;;;3.76;100.00;98799.38;5007236;28;20217;-69
2021/03/18 06:02:05;;;;;;;6.67;2.23;;;;;;;3.72;100.00;98796.16;5012533;28;20301;-69
2021/03/18 06:04:32;;;;;;;6.80;2.67;;;;;;;3.90;100.00;98801.56;5011729;28;20211;-69
2021/03/18 06:06:59;;;;;;;5.87;2.50;;;;;;;3.91;100.00;98801.44;5010134;28;20206;-69
2021/03/18 06:09:26;;;;;;;6.43;2.83;;;;;;;4.02;100.00;98803.09;5006620;28;20236;-69
2021/03/18 06:11:53;;;;;;;4.57;2.40;;;;;;;4.16;100.00;98798.19;5002367;28;20220;-69
2021/03/18 06:14:20;;;;;;;4.17;2.57;;;;;;;3.95;100.00;98796.69;5011554;28;20203;-69
2021/03/18 06:16:48;;;;;;;7.63;2.97;;;;;;;4.35;100.00;98803.44;5004897;28;21028;-69
2021/03/18 06:19:16;;;;;;;6.17;2.70;;;;;;;4.12;100.00;98804.72;5017135;28;20292;-69
2021/03/18 06:21:48;;;;;;;6.50;2.40;;;;;;;4.39;100.00;98798.72;5023372;28;20230;-69
2021/03/18 06:24:15;;;;;;;6.43;2.50;;;;;;;4.39;100.00;98796.91;5011909;28;20215;-69
2021/03/18 06:26:42;;;;;;;6.50;2.30;;;;;;;4.25;100.00;98799.16;5013853;28;20221;-69
2021/03/18 06:29:27;;;;;;;6.03;2.63;;;;;;;4.58;100.00;98799.47;5009661;28;20215;-69
2021/03/18 06:31:56;;;;;;;6.43;3.13;;;;;;;4.85;100.00;98804.81;5010659;28;20227;-69
2021/03/18 06:34:40;;;;;;;4.40;2.27;;;;;;;4.67;100.00;98798.63;5011184;28;20206;-69
2021/03/18 06:37:31;;;;;;;8.80;2.47;;;;;;;4.84;100.00;98797.03;5013066;28;20230;-70
2021/03/18 06:40:00;;;;;;;9.23;2.43;;;;;;;5.20;100.00;98790.84;5014890;28;20229;-69
2021/03/18 06:42:27;;;;;;;5.87;2.20;;;;;;;5.02;100.00;98787.34;5008283;28;20210;-69
2021/03/18 06:45:05;;;;;;;7.23;2.33;;;;;;;5.00;100.00;98792.78;5014415;28;20206;-71
2021/03/18 06:47:44;;;;;;;5.27;2.50;;;;;;;4.90;100.00;98794.63;5015470;28;20219;-69
2021/03/18 06:50:13;;;;;;;5.13;2.40;;;;;;;4.96;100.00;98794.03;5015436;28;20236;-69
2021/03/18 06:52:41;;;;;;;6.60;2.57;;;;;;;5.16;100.00;98786.81;5007990;28;20207;-72
2021/03/18 06:55:10;;;;;;;3.13;1.97;;;;;;;5.30;100.00;98786.34;5014811;28;20302;-71
2021/03/18 06:57:37;;;;;;;4.43;2.27;;;;;;;4.63;100.00;98791.94;5014107;28;20239;-69
2021/03/18 07:00:07;;;;;;;4.63;2.73;;;;;;;4.82;100.00;98799.00;5013717;28;20208;-72
2021/03/18 07:02:40;;;;;;;3.83;2.20;;;;;;;4.80;100.00;98795.66;5013190;28;20214;-70
2021/03/18 07:05:17;;;;;;;4.30;2.40;;;;;;;5.48;100.00;98798.59;5011346;28;20265;-71
2021/03/18 07:07:44;;;;;;;3.77;2.30;;;;;;;5.60;98.17;98800.06;5008038;28;20200;-69
2021/03/18 07:10:11;;;;;;;9.47;3.03;;;;;;;5.73;99.80;98786.44;5016213;28;20237;-70
2021/03/18 07:12:38;;;;;;;3.17;2.50;;;;;;;5.63;100.00;98791.81;5011953;28;20207;-70
2021/03/18 07:15:18;;;;;;;7.70;2.17;;;;;;;5.32;100.00;98802.88;5014526;28;20242;-69
2021/03/18 07:17:44;;;;;;;5.87;2.53;;;;;;;4.82;100.00;98806.94;5010163;28;20227;-69
2021/03/18 07:20:18;;;;;;;3.40;2.60;;;;;;;4.77;100.00;98799.41;5014954;28;20318;-69
2021/03/18 07:22:46;;;;;;;6.60;3.10;;;;;;;5.71;100.00;98797.19;5013687;28;20216;-70
2021/03/18 07:25:15;;;;;;;6.53;3.00;;;;;;;5.65;96.19;98803.09;5007310;28;20213;-69
2021/03/18 07:27:44;;;;;;;6.97;2.80;;;;;;;5.41;100.00;98797.53;5016622;28;20341;-74
2021/03/18 07:30:23;;;;;;;8.43;3.23;;;;;;;5.88;94.51;98803.47;5015893;28;20232;-75
2021/03/18 07:32:50;;;;;;;7.17;2.80;;;;;;;5.90;96.87;98790.94;5015518;28;20204;-77
2021/03/18 07:35:18;;;;;;;7.77;3.00;;;;;;;6.15;96.49;98787.50;5018093;28;20204;-74
2021/03/18 07:37:45;;;;;;;6.63;2.47;;;;;;;5.66;100.00;98791.50;5010264;28;20295;-70
2021/03/18 07:40:12;;;;;;;7.03;2.80;;;;;;;5.17;100.00;98791.13;5009868;28;20239;-67
2021/03/18 07:42:40;;;;;;;6.27;3.10;;;;;;;4.90;100.00;98801.72;5014334;28;20689;-67
2021/03/18 07:45:09;;;;;;;4.90;3.00;;;;;;;4.67;100.00;98801.25;5004599;28;20216;-67
2021/03/18 07:47:36;;;;;;;6.37;2.97;;;;;;;4.88;100.00;98793.94;5010718;28;20216;-68
2021/03/18 07:50:05;;;;;;;5.17;2.87;;;;;;;4.65;100.00;98792.66;5009071;28;20265;-68
2021/03/18 07:52:34;;;;;;;6.37;3.40;;;;;;;4.70;100.00;98782.47;5011127;28;20215;-67
2021/03/18 07:55:01;;;;;;;8.97;4.43;;;;;;;4.87;100.00;98786.97;5008600;28;20199;-68
2021/03/18 07:57:28;;;;;;;5.13;3.50;;;;;;;5.20;100.00;98786.41;5013099;28;20237;-68
2021/03/18 08:00:08;;;;;;;5.03;2.83;;;;;;;5.72;98.16;98788.25;5013363;28;20778;-68
2021/03/18 08:02:35;;;;;;;4.83;2.87;;;;;;;5.30;100.00;98786.34;5011196;28;20204;-66
2021/03/18 08:05:02;;;;;;;8.07;3.70;;;;;;;5.32;99.11;98784.34;5013029;28;20257;-67
2021/03/18 08:07:48;;;;;;;5.47;2.97;;;;;;;5.22;100.00;98783.59;5007575;28;20203;-67
2021/03/18 08:10:17;;;;;;;8.67;3.40;;;;;;;5.29;100.00;98782.03;5012234;28;20239;-68
2021/03/18 08:12:49;;;;;;;5.17;3.50;;;;;;;5.35;99.37;98779.63;5018063;28;20204;-67
2021/03/18 08:15:35;;;;;;;6.50;3.67;;;;;;;5.90;94.52;98781.16;5012888;28;20207;-67
2021/03/18 08:18:33;;;;;;;7.67;3.43;;;;;;;5.84;100.00;98780.94;5012000;28;20224;-67
2021/03/18 08:21:09;;;;;;;4.87;3.37;;;;;;;5.97;96.95;98771.63;5009562;28;20234;-67
2021/03/18 08:23:38;;;;;;;7.87;3.53;;;;;;;5.69;95.79;98783.25;5011630;28;20202;-67
2021/03/18 08:26:06;;;;;;;9.83;4.53;;;;;;;5.67;96.28;98782.56;5009427;28;20211;-67
2021/03/18 08:28:38;;;;;;;5.93;3.30;;;;;;;5.75;94.26;98779.19;5003592;28;20215;-67
2021/03/18 08:31:06;;;;;;;5.63;3.53;;;;;;;5.58;93.78;98772.06;5012512;28;20586;-67
2021/03/18 08:33:34;;;;;;;6.27;3.13;;;;;;;5.49;94.39;98768.50;5008570;28;20226;-67
2021/03/18 08:36:24;;;;;;;6.93;3.60;;;;;;;5.21;95.76;98773.97;5012701;28;20285;-67
2021/03/18 08:38:52;;;;;;;5.57;3.60;;;;;;;5.30;97.11;98773.94;5006705;28;20208;-67
2021/03/18 08:41:27;;;;;;;6.63;3.77;;;;;;;6.10;91.73;98769.38;5010967;28;20703;-67
2021/03/18 08:44:11;;;;;;;6.33;3.87;;;;;;;5.83;88.05;98772.16;5012053;28;20205;-67
2021/03/18 08:46:39;;;;;;;7.07;3.50;;;;;;;5.21;93.52;98769.53;5012262;28;20585;-67
2021/03/18 08:49:27;;;;;;;6.73;3.30;;;;;;;5.96;90.22;98769.97;5011351;28;20219;-67
2021/03/18 08:51:54;;;;;;;6.13;3.33;;;;;;;6.02;92.16;98763.19;5008892;28;20726;-67
2021/03/18 08:54:50;;;;;;;7.10;3.50;;;;;;;5.98;83.72;98767.13;5011347;28;20305;-68
2021/03/18 08:57:30;;;;;;;5.20;3.10;;;;;;;6.59;81.92;98757.28;5012398;28;20291;-68
2021/03/18 09:00:00;;;;;;;6.50;3.40;;;;;;;7.03;73.96;98774.72;5011698;28;20208;-68
2021/03/18 09:02:32;;;;;;;4.03;2.77;;;;;;;6.44;79.50;98757.03;5010616;28;20208;-70
2021/03/18 09:05:00;;;;;;;6.60;3.77;;;;;;;7.27;70.69;98770.34;5010178;28;20331;-69
2021/03/18 09:07:28;;;;;;;7.13;3.13;;;;;;;7.41;72.74;98772.34;5016374;28;20566;-69
2021/03/18 09:10:10;;;;;;;8.80;3.30;;;;;;;7.03;74.18;98761.47;5009833;28;20221;-69
2021/03/18 09:12:38;;;;;;;5.77;3.33;;;;;;;6.88;75.10;98760.41;5010275;28;20206;-69
2021/03/18 09:15:26;;;;;;;5.33;3.07;;;;;;;7.58;68.12;98774.06;5015355;28;20209;-69
2021/03/18 09:17:57;;;;;;;6.50;3.07;;;;;;;7.92;66.46;98774.75;5014127;28;20245;-69
2021/03/18 09:20:27;;;;;;;5.73;3.03;;;;;;;6.60;71.86;98769.56;5004974;28;20234;-69
2021/03/18 09:22:55;;;;;;;6.90;3.73;;;;;;;6.68;75.49;98762.47;5012859;28;20211;-69
2021/03/18 09:25:27;;;;;;;5.70;3.07;;;;;;;5.91;79.12;98755.50;5011119;28;20215;-68
2021/03/18 09:27:54;;;;;;;5.10;2.90;;;;;;;7.28;74.37;98749.94;5000743;28;20260;-69
2021/03/18 09:30:24;;;;;;;5.70;3.00;;;;;;;7.14;77.08;98742.59;5009783;28;20282;-69
2021/03/18 09:32:52;;;;;;;6.00;3.27;;;;;;;6.06;79.36;98743.38;5011672;28;20293;-69
2021/03/18 09:35:19;;;;;;;6.20;3.30;;;;;;;6.25;80.24;98746.63;5004803;28;20272;-69
2021/03/18 09:37:48;;;;;;;4.30;3.20;;;;;;;6.00;83.97;98744.81;5006863;28;20596;-68
2021/03/18 09:40:16;;;;;;;6.70;3.40;;;;;;;6.30;84.14;98748.84;5005577;28;20318;-68
2021/03/18 09:42:44;;;;;;;10.03;3.90;;;;;;;6.74;80.99;98740.63;5007359;28;20208;-69
2021/03/18 09:45:18;;;;;;;7.90;3.83;;;;;;;6.42;80.63;98750.22;5006121;28;20213;-68
2021/03/18 09:47:48;;;;;;;7.00;3.43;;;;;;;6.98;78.85;98742.53;5004663;28;20216;-69
2021/03/18 09:50:15;;;;;;;7.80;3.00;;;;;;;7.02;76.47;98739.41;5007954;28;20235;-68
2021/03/18 09:52:42;;;;;;;7.43;2.60;;;;;;;6.23;79.71;98737.19;5009896;28;20538;-69
2021/03/18 09:55:12;;;;;;;6.33;2.93;;;;;;;6.92;74.20;98745.84;4997767;28;20212;-69
2021/03/18 09:57:39;;;;;;;3.83;2.70;;;;;;;6.98;71.80;98737.22;5003371;28;20287;-69
2021/03/18 10:00:10;;;;;;;6.17;2.87;;;;;;;7.05;73.13;98736.44;4999824;28;20218;-69
2021/03/18 10:02:36;;;;;;;4.60;2.83;;;;;;;6.38;76.03;98727.66;5006500;28;20206;-68
2021/03/18 10:05:06;;;;;;;5.07;3.10;;;;;;;6.83;75.78;98726.41;5015643;28;20228;-68
2021/03/18 10:07:33;;;;;;;4.67;2.70;;;;;;;7.18;75.61;98734.16;5000403;28;20296;-69
2021/03/18 10:10:00;;;;;;;6.87;2.97;;;;;;;7.06;78.27;98716.84;5006484;28;20292;-69
2021/03/18 10:12:29;;;;;;;6.30;2.93;;;;;;;7.68;70.66;98732.25;5012194;28;20206;-68
2021/03/18 10:14:58;;;;;;;5.07;3.07;;;;;;;6.97;75.27;98724.97;5011517;28;20210;-69
2021/03/18 10:17:27;;;;;;;3.50;2.60;;;;;;;8.27;65.53;98734.56;5008871;28;20226;-68
2021/03/18 10:19:58;;;;;;;6.30;3.00;;;;;;;8.54;64.09;98738.66;5012200;28;20210;-69
2021/03/18 10:22:30;;;;;;;8.33;2.97;;;;;;;8.74;62.63;98732.81;5011757;28;20221;-70
2021/03/18 10:25:02;;;;;;;5.03;2.97;;;;;;;8.84;61.56;98738.72;5010596;28;20206;-68
2021/03/18 10:27:32;;;;;;;7.40;2.60;;;;;;;7.97;66.46;98719.28;5013230;28;20213;-70
2021/03/18 10:30:06;;;;;;;7.77;3.03;;;;;;;8.51;64.04;98726.53;5005266;28;20202;-71
2021/03/18 10:32:34;;;;;;;7.87;3.00;;;;;;;7.32;69.38;98717.56;5009212;28;20764;-70
2021/03/18 10:35:01;;;;;;;6.20;3.43;;;;;;;8.40;66.21;98718.91;5006081;28;20217;-70
2021/03/18 10:37:32;;;;;;;4.83;2.70;;;;;;;8.27;66.59;98713.28;5010164;28;20218;-70
2021/03/18 10:40:22;;;;;;;4.43;2.60;;;;;;;7.34;69.16;98717.41;5002813;28;20310;-67
2021/03/18 10:42:51;;;;;;;4.83;2.87;;;;;;;7.55;67.49;98707.16;5010923;28;20673;-71
2021/03/18 10:45:22;;;;;;;9.83;3.00;;;;;;;8.26;64.23;98710.78;5007665;28;20702;-68
2021/03/18 10:47:51;;;;;;;8.20;2.70;;;;;;;8.31;64.46;98711.13;5005549;28;20204;-68
2021/03/18 10:50:21;;;;;;;3.73;2.60;;;;;;;7.89;66.59;98703.34;4998226;28;20235;-68
2021/03/18 10:53:00;;;;;;;4.57;2.57;;;;;;;6.93;64.58;98715.66;5009362;28;20214;-70
2021/03/18 10:55:34;;;;;;;5.13;2.37;;;;;;;6.60;63.39;98711.22;4999236;28;20206;-67
2021/03/18 10:58:03;;;;;;;3.97;2.37;;;;;;;7.18;62.42;98720.88;5012322;28;21179;-70
2021/03/18 11:00:31;;;;;;;4.17;2.40;;;;;;;7.10;62.38;98720.84;5007347;28;20226;-71
2021/03/18 11:03:13;;;;;;;4.67;2.20;;;;;;;7.06;64.77;98708.88;5010008;28;20210;-70
2021/03/18 11:05:49;;;;;;;5.53;2.37;;;;;;;8.01;62.87;98699.34;5002022;28;20212;-69
2021/03/18 11:08:18;;;;;;;3.77;2.50;;;;;;;7.76;61.87;98710.16;5012845;28;20210;-70
2021/03/18 11:10:47;;;;;;;3.17;2.50;;;;;;;7.21;62.49;98703.81;5009603;28;20231;-69
2021/03/18 11:13:20;;;;;;;6.63;3.10;;;;;;;6.95;66.62;98698.59;5003112;28;20215;-70
2021/03/18 11:15:52;;;;;;;5.77;2.50;;;;;;;6.93;66.00;98707.69;5008805;28;20275;-70
2021/03/18 11:18:27;;;;;;;6.53;3.00;;;;;;;6.86;69.15;98696.06;5006254;28;20241;-69
2021/03/18 11:20:54;;;;;;;5.93;2.80;;;;;;;7.67;65.77;98693.38;5004692;28;20242;-69
2021/03/18 11:23:27;;;;;;;6.23;2.73;;;;;;;7.09;64.60;98697.97;5006611;28;20265;-69
2021/03/18 11:25:58;;;;;;;3.63;2.43;;;;;;;7.53;63.96;98698.53;5002880;28;20214;-72
2021/03/18 11:28:25;;;;;;;3.47;2.60;;;;;;;7.72;61.62;98696.38;5008872;28;20246;-68
2021/03/18 11:30:54;;;;;;;8.33;3.07;;;;;;;8.44;55.09;98698.97;5003046;28;20226;-68
2021/03/18 11:33:27;;;;;;;2.80;2.10;;;;;;;9.68;45.61;98720.09;5005238;28;20233;-70
2021/03/18 11:35:53;;;;;;;7.90;3.60;;;;;;;9.14;50.36;98700.66;5012637;28;20210;-70
2021/03/18 11:38:20;;;;;;;10.33;3.80;;;;;;;9.54;47.01;98711.03;5004622;28;20726;-74
2021/03/18 11:40:48;;;;;;;10.37;2.80;;;;;;;8.50;46.06;98718.72;5002544;28;20236;-71
2021/03/18 11:43:15;;;;;;;8.07;2.40;;;;;;;7.82;47.74;98712.16;5004072;28;20207;-72
2021/03/18 11:45:43;;;;;;;4.43;1.97;;;;;;;8.65;45.95;98709.88;5002810;28;20206;-73
2021/03/18 11:48:10;;;;;;;3.77;2.47;;;;;;;9.14;47.11;98703.31;5006016;28;20253;-73
2021/03/18 11:50:39;;;;;;;4.77;2.60;;;;;;;8.60;46.65;98704.25;5002076;28;20287;-69